Time;durP1;ratioP1;P1;durP2;ratioP2;P2;SDS_P1;SDS_P2;PMS_P1;PMS_P2;Temp;Humidity;BMP_temperature;BMP_pressure;BME280_temperature;BME280_humidity;BME280_pressure;Samples;Min_cycle;Max_cycle;Signal;HPM_P1;HPM_P2
2023/03/24 00:01:02;;;;;;;3.83;3.17;;;;;;;14.01;68.05;97966.41;5092778;28;40621;-78
2023/03/24 00:03:31;;;;;;;3.10;2.57;;;;;;;14.02;67.99;97961.94;5075726;28;43128;-78
2023/03/24 00:06:03;;;;;;;5.17;3.13;;;;;;;14.03;68.09;97964.44;5092860;28;42100;-79
2023/03/24 00:08:34;;;;;;;3.97;2.93;;;;;;;14.03;68.98;97937.81;5089374;28;39799;-78
2023/03/24 00:11:05;;;;;;;3.57;3.27;;;;;;;14.03;68.76;97948.47;5090884;28;42787;-78
2023/03/24 00:13:36;;;;;;;4.73;2.80;;;;;;;14.03;68.33;97961.78;5075535;28;41695;-78
2023/03/24 00:16:05;;;;;;;3.70;3.07;;;;;;;14.03;68.38;97948.47;5075279;28;42446;-78
2023/03/24 00:18:35;;;;;;;3.10;2.80;;;;;;;14.02;69.28;97936.16;5092000;28;38806;-79
2023/03/24 00:21:06;;;;;;;3.40;3.00;;;;;;;14.00;69.42;97940.75;5074660;28;40790;-78
2023/03/24 00:23:35;;;;;;;3.40;2.80;;;;;;;14.05;68.95;97952.81;5075607;28;42814;-78
2023/03/24 00:26:05;;;;;;;3.00;2.63;;;;;;;14.03;68.64;97948.47;5075468;28;41582;-79
2023/03/24 00:28:35;;;;;;;2.77;2.57;;;;;;;14.06;68.23;97947.38;5074833;28;38811;-78
2023/03/24 00:31:05;;;;;;;2.27;2.07;;;;;;;14.09;68.12;97940.94;5092530;28;41576;-80
2023/03/24 00:33:33;;;;;;;3.70;3.20;;;;;;;13.97;68.86;97914.41;5075342;28;41727;-79
2023/03/24 00:36:02;;;;;;;3.20;2.90;;;;;;;14.08;68.53;97923.28;5092136;28;42170;-79
2023/03/24 00:38:33;;;;;;;3.50;2.73;;;;;;;14.05;68.55;97918.22;5075559;28;39205;-79
2023/03/24 00:41:01;;;;;;;2.90;2.43;;;;;;;14.05;68.28;97919.06;5092343;28;42193;-78
2023/03/24 00:43:30;;;;;;;3.27;2.20;;;;;;;14.09;68.35;97922.28;5074947;28;42607;-79
2023/03/24 00:46:00;;;;;;;3.10;2.40;;;;;;;14.08;68.37;97920.59;5075086;28;41298;-79
2023/03/24 00:48:29;;;;;;;3.53;2.87;;;;;;;13.97;69.07;97903.75;5092115;28;40667;-78
2023/03/24 00:50:57;;;;;;;2.97;2.63;;;;;;;13.80;69.37;97882.34;5092358;28;42648;-78
2023/03/24 00:53:28;;;;;;;2.67;2.40;;;;;;;13.73;70.40;97874.06;5075032;28;41990;-78
2023/03/24 00:55:58;;;;;;;4.73;2.93;;;;;;;13.82;70.91;97886.56;5074698;28;40966;-78
2023/03/24 00:58:28;;;;;;;2.67;2.43;;;;;;;13.82;70.58;97885.72;5092890;28;39777;-79
2023/03/24 01:00:58;;;;;;;2.77;2.57;;;;;;;13.79;70.41;97884.19;5074641;28;40703;-78
2023/03/24 01:03:26;;;;;;;4.00;3.20;;;;;;;13.75;70.20;97873.94;5091520;28;43711;-78
2023/03/24 01:05:56;;;;;;;4.27;3.10;;;;;;;13.74;72.24;97862.44;5091701;28;42253;-78
2023/03/24 01:08:27;;;;;;;3.00;2.70;;;;;;;13.69;71.47;97859.38;5073955;28;38582;-78
2023/03/24 01:10:59;;;;;;;3.57;2.73;;;;;;;13.59;71.35;97842.59;5091473;28;41887;-79
2023/03/24 01:13:30;;;;;;;3.30;2.90;;;;;;;13.62;70.90;97844.94;5074437;28;42628;-78
2023/03/24 01:15:58;;;;;;;2.53;2.33;;;;;;;13.73;71.13;97866.09;5074656;28;42413;-79
2023/03/24 01:18:27;;;;;;;3.77;2.70;;;;;;;13.55;71.06;97825.22;5091499;28;39921;-79
2023/03/24 01:20:55;;;;;;;2.73;2.47;;;;;;;13.69;71.58;97854.06;5092279;28;42019;-79
2023/03/24 01:23:26;;;;;;;3.27;2.70;;;;;;;13.72;71.44;97853.78;5090874;28;42109;-79
2023/03/24 01:25:54;;;;;;;3.23;2.93;;;;;;;13.74;71.07;97858.94;5074346;28;42577;-78
2023/03/24 01:28:26;;;;;;;3.57;2.80;;;;;;;13.74;71.66;97843.81;5073734;28;38901;-78
2023/03/24 01:30:54;;;;;;;6.23;3.33;;;;;;;13.69;72.20;97838.09;5074532;28;40643;-78
2023/03/24 01:33:22;;;;;;;4.03;3.40;;;;;;;13.65;72.37;97844.66;5092009;28;43568;-78
2023/03/24 01:35:50;;;;;;;3.50;3.20;;;;;;;13.59;73.50;97842.59;5074085;28;41339;-77
2023/03/24 01:38:18;;;;;;;3.57;3.20;;;;;;;13.59;73.08;97837.25;5091072;28;40523;-79
2023/03/24 01:40:47;;;;;;;5.07;3.33;;;;;;;13.58;72.70;97836.44;5074338;28;40544;-78
2023/03/24 01:43:20;;;;;;;4.47;3.47;;;;;;;13.57;72.71;97836.56;5074048;28;41524;-78
2023/03/24 01:46:08;;;;;;;3.33;2.73;;;;;;;13.51;72.85;97829.13;5074142;28;41028;-78
2023/03/24 01:48:40;;;;;;;3.60;3.07;;;;;;;13.44;72.50;97826.19;5074299;28;39122;-77
2023/03/24 01:51:15;;;;;;;3.10;2.80;;;;;;;13.36;72.42;97811.88;5073948;28;40722;-78
2023/03/24 01:53:54;;;;;;;2.47;2.27;;;;;;;13.35;72.45;97812.91;5074022;28;41693;-78
2023/03/24 01:56:23;;;;;;;3.13;2.40;;;;;;;13.25;71.99;97797.75;5074045;28;41498;-78
2023/03/24 01:58:56;;;;;;;4.00;2.13;;;;;;;13.35;71.81;97808.41;5073851;28;39130;-78
2023/03/24 02:01:45;;;;;;;3.50;2.23;;;;;;;13.38;71.02;97801.97;5090513;28;41125;-78
2023/03/24 02:04:40;;;;;;;2.60;2.17;;;;;;;13.44;71.09;97798.75;5085598;28;43260;-78
2023/03/24 02:07:15;;;;;;;2.50;2.30;;;;;;;13.49;70.61;97793.84;5074110;28;42010;-79
2023/03/24 02:09:43;;;;;;;2.43;2.07;;;;;;;13.54;70.65;97786.28;5073765;28;38893;-79
2023/03/24 02:12:12;;;;;;;2.37;2.17;;;;;;;13.57;70.38;97786.84;5090325;28;42430;-79
2023/03/24 02:14:40;;;;;;;2.40;2.20;;;;;;;13.60;70.64;97783.06;5090575;28;42813;-79
2023/03/24 02:17:45;;;;;;;3.27;2.40;;;;;;;13.67;70.12;97778.88;5090291;28;42249;-78
2023/03/24 02:20:32;;;;;;;2.40;2.20;;;;;;;13.71;69.88;97774.94;5078918;28;40000;-80
2023/03/24 02:23:35;;;;;;;2.20;2.00;;;;;;;13.75;69.62;97768.34;5093736;28;41965;-79
2023/03/24 02:27:03;;;;;;;3.30;2.47;;;;;;;13.81;69.12;97772.28;5091109;28;42889;-79
2023/03/24 02:30:05;;;;;;;3.50;2.77;;;;;;;13.85;68.96;97771.81;4954645;28;42198;-80
2023/03/24 02:33:17;;;;;;;2.00;1.90;;;;;;;13.85;69.04;97769.16;5076852;28;41095;-79
2023/03/24 02:36:31;;;;;;;3.27;2.40;;;;;;;13.81;68.74;97761.63;5033356;28;42453;-79
2023/03/24 02:39:42;;;;;;;3.20;2.30;;;;;;;13.76;69.40;97755.88;5090984;28;42912;-79
2023/03/24 02:42:24;;;;;;;2.90;2.37;;;;;;;13.71;69.35;97768.78;5077009;28;42337;-79
2023/03/24 02:45:04;;;;;;;2.30;2.10;;;;;;;13.64;69.60;97763.19;5077255;28;38850;-79
2023/03/24 02:47:43;;;;;;;2.30;1.87;;;;;;;13.60;69.33;97761.78;5092942;28;41486;-78
2023/03/24 02:50:19;;;;;;;2.93;2.00;;;;;;;13.58;69.47;97755.78;5090888;28;43778;-79
2023/03/24 02:52:53;;;;;;;4.23;2.70;;;;;;;13.54;69.40;97749.91;5076903;28;40928;-78
2023/03/24 02:55:28;;;;;;;2.63;2.43;;;;;;;13.55;69.88;97735.63;5077123;28;39099;-78
2023/03/24 02:58:02;;;;;;;2.67;2.43;;;;;;;13.59;69.97;97741.50;5092790;28;41983;-79
2023/03/24 03:00:58;;;;;;;2.60;2.40;;;;;;;13.63;70.24;97749.03;5077115;28;42284;-78
2023/03/24 03:03:53;;;;;;;3.80;2.50;;;;;;;13.69;69.79;97744.97;5076854;28;41025;-78
2023/03/24 03:06:30;;;;;;;2.30;2.10;;;;;;;13.70;69.92;97740.50;5077038;28;38928;-78
2023/03/24 03:09:02;;;;;;;2.67;2.30;;;;;;;13.75;69.89;97748.88;5076769;28;41945;-78
2023/03/24 03:11:32;;;;;;;2.90;2.60;;;;;;;13.79;70.03;97739.63;5076037;28;42370;-79
2023/03/24 03:14:03;;;;;;;3.47;2.40;;;;;;;13.78;69.97;97738.78;5076111;28;41132;-79
2023/03/24 03:16:37;;;;;;;3.27;2.73;;;;;;;13.81;69.81;97735.84;5076370;28;38909;-83
2023/03/24 03:19:11;;;;;;;2.63;2.30;;;;;;;13.79;69.78;97721.00;5057518;28;40392;-81
2023/03/24 03:21:41;;;;;;;2.53;2.13;;;;;;;13.89;69.21;97724.47;5091273;28;43360;-83
2023/03/24 03:24:14;;;;;;;2.00;1.77;;;;;;;13.94;69.47;97730.22;5064831;28;41242;-78
2023/03/24 03:26:48;;;;;;;2.07;1.93;;;;;;;13.97;69.53;97730.75;5090936;28;39954;-79
2023/03/24 03:29:20;;;;;;;4.40;3.00;;;;;;;13.95;69.48;97726.59;5088892;28;42215;-81
2023/03/24 03:31:58;;;;;;;2.37;2.17;;;;;;;13.99;69.58;97725.28;5091903;28;43226;-81
2023/03/24 03:34:32;;;;;;;2.33;2.13;;;;;;;13.96;69.79;97718.47;5110042;28;41635;-79
2023/03/24 03:37:08;;;;;;;2.43;2.07;;;;;;;13.99;69.78;97728.78;5091158;28;39849;-83
2023/03/24 03:39:43;;;;;;;2.07;1.97;;;;;;;14.01;69.90;97729.50;5090719;28;41969;-83
2023/03/24 03:42:14;;;;;;;3.03;2.43;;;;;;;13.98;69.75;97719.13;5078992;28;42642;-79
2023/03/24 03:44:43;;;;;;;2.20;2.00;;;;;;;14.03;69.21;97708.91;5103178;28;42273;-80
2023/03/24 03:47:11;;;;;;;3.30;2.20;;;;;;;13.88;69.66;97678.41;5079259;28;41161;-79
2023/03/24 03:49:43;;;;;;;2.77;2.33;;;;;;;14.10;69.37;97692.31;5075588;28;40601;-83
2023/03/24 03:52:11;;;;;;;3.93;2.70;;;;;;;14.16;69.12;97697.06;5092872;28;42634;-79
2023/03/24 03:54:41;;;;;;;2.40;2.20;;;;;;;14.08;69.07;97683.66;5076131;28;42160;-80
2023/03/24 03:57:10;;;;;;;2.83;2.63;;;;;;;14.21;68.88;97700.16;5092694;28;40944;-82
2023/03/24 03:59:50;;;;;;;2.67;2.17;;;;;;;14.25;68.75;97704.19;5075379;28;43434;-81
2023/03/24 04:02:39;;;;;;;2.70;2.40;;;;;;;14.23;68.69;97687.50;5075835;28;42404;-82
2023/03/24 04:05:25;;;;;;;2.87;2.57;;;;;;;14.28;68.39;97685.25;5075636;28;42256;-81
2023/03/24 04:08:09;;;;;;;2.40;2.13;;;;;;;14.23;68.12;97687.50;5076209;28;38699;-82
2023/03/24 04:11:21;;;;;;;3.20;2.40;;;;;;;14.40;67.98;97704.56;5093657;28;41798;-81
2023/03/24 04:14:24;;;;;;;2.30;2.10;;;;;;;14.38;68.06;97691.38;5091930;28;42702;-81
2023/03/24 04:17:37;;;;;;;3.23;2.10;;;;;;;14.38;67.83;97691.38;5091306;28;43234;-81
2023/03/24 04:20:13;;;;;;;2.63;2.30;;;;;;;14.47;68.10;97719.81;5071538;28;39649;-81
2023/03/24 04:23:03;;;;;;;2.27;1.93;;;;;;;14.38;67.68;97696.69;5071520;28;41545;-83
2023/03/24 04:25:39;;;;;;;2.27;2.03;;;;;;;14.42;67.75;97703.44;5071834;28;41598;-83
2023/03/24 04:28:19;;;;;;;2.50;2.30;;;;;;;14.41;67.58;97707.09;5092065;28;42945;-82
2023/03/24 04:30:50;;;;;;;2.57;2.33;;;;;;;14.50;67.22;97722.19;5071488;28;38765;-82
2023/03/24 04:33:29;;;;;;;2.40;2.20;;;;;;;14.46;67.43;97704.00;5072574;28;42185;-82
2023/03/24 04:36:05;;;;;;;2.13;2.00;;;;;;;14.42;67.25;97697.28;5055429;28;41727;-82
2023/03/24 04:38:49;;;;;;;2.60;2.00;;;;;;;14.56;67.39;97716.28;5057081;28;41389;-83
2023/03/24 04:41:36;;;;;;;2.10;1.90;;;;;;;14.58;67.01;97714.31;5088760;28;40035;-80
2023/03/24 04:44:16;;;;;;;2.13;1.93;;;;;;;14.57;66.93;97706.47;5107936;28;40766;-82
2023/03/24 04:47:03;;;;;;;2.40;2.20;;;;;;;14.62;66.91;97718.31;5109014;28;41724;-82
2023/03/24 04:49:37;;;;;;;2.17;2.03;;;;;;;14.60;66.85;97706.97;5070771;28;41137;-81
2023/03/24 04:52:06;;;;;;;1.97;1.83;;;;;;;14.63;66.71;97709.34;5072109;28;38595;-82
2023/03/24 04:54:35;;;;;;;2.17;1.97;;;;;;;14.55;67.08;97697.78;5092906;28;43856;-82
2023/03/24 04:57:06;;;;;;;2.20;2.00;;;;;;;14.52;66.75;97698.91;5083016;28;41858;-81
2023/03/24 04:59:41;;;;;;;2.40;2.20;;;;;;;14.51;67.46;97696.38;5080751;28;42264;-81
2023/03/24 05:02:10;;;;;;;2.63;2.23;;;;;;;14.58;67.21;97708.97;5094570;28;40819;-80
2023/03/24 05:04:44;;;;;;;2.30;1.73;;;;;;;14.55;66.75;97714.59;5090737;28;42765;-82
2023/03/24 05:07:26;;;;;;;2.10;1.90;;;;;;;14.62;67.04;97726.31;5091733;28;41698;-84
2023/03/24 05:09:58;;;;;;;2.33;2.13;;;;;;;14.62;66.95;97714.81;5069758;28;41605;-83
2023/03/24 05:12:26;;;;;;;2.23;2.00;;;;;;;14.57;66.74;97707.28;5074316;28;39152;-82
2023/03/24 05:15:19;;;;;;;1.93;1.80;;;;;;;14.66;66.79;97733.03;5075338;28;40619;-84
2023/03/24 05:17:51;;;;;;;2.07;1.73;;;;;;;14.65;66.80;97736.69;5075734;28;41726;-82
2023/03/24 05:20:23;;;;;;;2.70;2.33;;;;;;;14.56;66.76;97726.94;5091520;28;42092;-82
2023/03/24 05:22:53;;;;;;;2.27;1.90;;;;;;;14.35;67.17;97694.31;5075748;28;38866;-84
2023/03/24 05:25:51;;;;;;;3.60;2.27;;;;;;;14.19;69.05;97702.97;5075304;28;40718;-82
2023/03/24 05:28:38;;;;;;;2.27;2.13;;;;;;;14.23;69.77;97730.09;5074575;28;43708;-82
2023/03/24 05:31:06;;;;;;;3.27;2.13;;;;;;;14.15;70.80;97744.16;5075811;28;41722;-82
2023/03/24 05:33:48;;;;;;;3.77;2.70;;;;;;;14.06;71.01;97736.22;5075604;28;39061;-82
2023/03/24 05:36:21;;;;;;;2.63;2.43;;;;;;;14.07;72.04;97745.88;5075507;28;40552;-84
2023/03/24 05:38:58;;;;;;;3.30;2.53;;;;;;;14.06;72.64;97745.03;5075156;28;42995;-81
2023/03/24 05:41:35;;;;;;;2.70;2.43;;;;;;;14.06;73.57;97738.88;5075555;28;41385;-81
2023/03/24 05:44:03;;;;;;;4.17;2.50;;;;;;;14.10;73.99;97742.91;5075161;28;39921;-84
2023/03/24 05:46:31;;;;;;;2.63;2.43;;;;;;;14.11;75.02;97739.25;5092657;28;41875;-83
2023/03/24 05:49:01;;;;;;;2.60;2.40;;;;;;;14.16;75.28;97745.00;5074909;28;42018;-85
2023/03/24 05:51:35;;;;;;;3.33;2.37;;;;;;;14.22;75.28;97755.06;5089010;28;43290;-82
2023/03/24 05:54:07;;;;;;;3.53;2.80;;;;;;;14.21;75.49;97750.75;5092064;28;40328;-85
2023/03/24 05:56:41;;;;;;;4.97;2.23;;;;;;;14.27;76.32;97755.47;5078505;28;40566;-82
2023/03/24 05:59:21;;;;;;;2.50;2.30;;;;;;;14.30;76.83;97760.50;5095575;28;42026;-83
2023/03/24 06:02:04;;;;;;;2.57;2.37;;;;;;;14.31;77.58;97767.53;5095573;28;42375;-82
2023/03/24 06:04:44;;;;;;;2.93;2.53;;;;;;;14.27;77.83;97769.63;5094529;28;39841;-83
2023/03/24 06:07:18;;;;;;;3.00;2.70;;;;;;;14.21;78.28;97756.06;5079415;28;40696;-83
2023/03/24 06:09:49;;;;;;;4.07;3.10;;;;;;;14.15;79.55;97765.47;5078922;28;41662;-83
2023/03/24 06:12:20;;;;;;;2.73;2.37;;;;;;;14.05;80.49;97756.66;5078624;28;41084;-85
2023/03/24 06:14:56;;;;;;;5.53;2.90;;;;;;;14.03;81.73;97762.13;5070389;28;38657;-83
2023/03/24 06:17:27;;;;;;;3.87;3.27;;;;;;;14.11;81.75;97784.53;5094681;28;41721;-83
2023/03/24 06:20:03;;;;;;;3.57;2.83;;;;;;;14.05;83.17;97790.44;5092631;28;42884;-82
2023/03/24 06:22:33;;;;;;;3.40;3.10;;;;;;;13.98;83.57;97783.00;5094208;28;41401;-80
2023/03/24 06:25:03;;;;;;;3.30;2.93;;;;;;;13.87;84.18;97764.53;5073626;28;38921;-81
2023/03/24 06:27:32;;;;;;;3.20;2.90;;;;;;;13.95;84.48;97785.13;5077425;28;41780;-81
2023/03/24 06:30:00;;;;;;;3.13;2.83;;;;;;;13.94;85.80;97789.63;5093877;28;42140;-83
2023/03/24 06:32:29;;;;;;;5.17;3.50;;;;;;;13.80;85.59;97774.09;5094815;28;43209;-82
2023/03/24 06:34:56;;;;;;;3.90;2.90;;;;;;;13.87;86.55;97788.50;5073296;28;39060;-82
2023/03/24 06:37:46;;;;;;;3.67;3.33;;;;;;;13.75;87.04;97771.00;5084550;28;42095;-82
2023/03/24 06:40:16;;;;;;;3.77;3.20;;;;;;;13.83;87.64;97781.81;5088912;28;41552;-82
2023/03/24 06:42:51;;;;;;;4.30;3.17;;;;;;;13.84;87.94;97780.81;5071165;28;42189;-81
2023/03/24 06:45:19;;;;;;;4.10;3.40;;;;;;;13.87;88.09;97761.88;5083763;28;40423;-83
2023/03/24 06:47:49;;;;;;;3.80;3.50;;;;;;;13.81;88.11;97750.97;5077020;28;40699;-80
2023/03/24 06:50:17;;;;;;;2.90;2.70;;;;;;;13.99;87.64;97774.03;5093355;28;42937;-80
2023/03/24 06:52:47;;;;;;;5.00;3.17;;;;;;;14.05;87.49;97774.47;5076986;28;42081;-81
2023/03/24 06:55:21;;;;;;;4.40;3.40;;;;;;;14.16;87.31;97777.78;5072658;28;39957;-82
2023/03/24 06:57:50;;;;;;;3.23;2.80;;;;;;;14.22;86.85;97773.69;5057243;28;40606;-85
2023/03/24 07:00:31;;;;;;;4.10;3.27;;;;;;;14.31;86.19;97786.16;5064938;28;42797;-83
2023/03/24 07:03:22;;;;;;;3.57;3.00;;;;;;;14.36;85.69;97778.56;5073019;28;41216;-84
2023/03/24 07:06:09;;;;;;;3.47;2.77;;;;;;;14.43;85.27;97779.69;5095418;28;38895;-80
2023/03/24 07:08:39;;;;;;;3.97;2.60;;;;;;;14.49;85.42;97786.25;5084833;28;41106;-81
2023/03/24 07:11:08;;;;;;;2.90;2.60;;;;;;;14.32;84.68;97766.53;5079202;28;41890;-81
2023/03/24 07:13:38;;;;;;;3.60;2.70;;;;;;;14.67;84.02;97808.50;5095781;28;42783;-82
2023/03/24 07:16:06;;;;;;;3.00;2.67;;;;;;;14.65;83.56;97786.47;5093530;28;39975;-83
2023/03/24 07:18:36;;;;;;;5.87;2.80;;;;;;;14.86;83.05;97804.88;5076697;28;40621;-80
2023/03/24 07:21:08;;;;;;;2.47;2.27;;;;;;;14.97;81.67;97815.34;5092999;28;42202;-83
2023/03/24 07:23:37;;;;;;;2.63;2.40;;;;;;;15.05;81.50;97802.97;5076562;28;41339;-80
2023/03/24 07:26:12;;;;;;;5.30;2.40;;;;;;;15.23;80.99;97810.13;5090016;28;40052;-80
2023/03/24 07:28:46;;;;;;;2.40;2.20;;;;;;;15.27;80.01;97820.38;5094489;28;40431;-82
2023/03/24 07:31:16;;;;;;;4.17;2.50;;;;;;;15.33;79.96;97810.94;5076493;28;41841;-81
2023/03/24 07:33:45;;;;;;;3.03;2.73;;;;;;;15.18;79.44;97791.09;5076116;28;41156;-79
2023/03/24 07:36:15;;;;;;;3.07;2.23;;;;;;;15.49;78.81;97821.75;5094534;28;39982;-80
2023/03/24 07:38:43;;;;;;;2.77;2.50;;;;;;;15.60;77.63;97826.88;5093097;28;42884;-80
2023/03/24 07:41:18;;;;;;;2.63;2.43;;;;;;;15.88;76.92;97832.97;5110216;28;41416;-79
2023/03/24 07:43:52;;;;;;;3.03;2.70;;;;;;;15.99;75.88;97846.09;5123301;27;43242;-80
2023/03/24 07:46:25;;;;;;;4.67;3.00;;;;;;;16.03;75.45;97850.16;5090259;28;40744;-78
2023/03/24 07:48:53;;;;;;;2.97;2.67;;;;;;;16.01;75.20;97852.13;5074642;28;41795;-77
2023/03/24 07:51:23;;;;;;;3.70;2.53;;;;;;;15.75;75.12;97827.19;5090982;28;43046;-83
2023/03/24 07:54:06;;;;;;;3.63;2.33;;;;;;;15.83;75.73;97848.63;5073950;28;42750;-79
2023/03/24 07:56:43;;;;;;;4.37;2.63;;;;;;;15.72;75.69;97838.16;5090710;28;39843;-83
2023/03/24 07:59:13;;;;;;;2.73;2.53;;;;;;;15.59;76.54;97824.38;5075192;28;40410;-80
2023/03/24 08:01:50;;;;;;;3.47;2.73;;;;;;;15.66;77.11;97844.13;5092730;28;43763;-81
2023/03/24 08:04:21;;;;;;;2.40;2.20;;;;;;;15.53;76.57;97839.13;5074972;28;40836;-78
2023/03/24 08:07:04;;;;;;;2.70;2.50;;;;;;;15.53;76.40;97819.63;5092178;28;41641;-81
2023/03/24 08:09:31;;;;;;;3.30;2.50;;;;;;;15.79;75.98;97844.59;5075049;28;40578;-80
2023/03/24 08:12:01;;;;;;;3.20;2.90;;;;;;;15.69;76.04;97787.78;5075306;28;42106;-83
2023/03/24 08:14:28;;;;;;;4.17;2.97;;;;;;;16.29;74.55;97842.16;5075325;28;41504;-83
2023/03/24 08:16:56;;;;;;;3.20;2.80;;;;;;;16.23;73.93;97799.19;5092379;28;40002;-80
2023/03/24 08:19:24;;;;;;;3.20;2.90;;;;;;;16.25;72.81;97829.25;5092232;28;42826;-81
2023/03/24 08:21:52;;;;;;;2.90;2.70;;;;;;;16.20;73.09;97831.56;5075072;28;42915;-84
2023/03/24 08:24:21;;;;;;;3.40;3.00;;;;;;;16.24;73.17;97822.25;5074814;28;42231;-86
2023/03/24 08:26:49;;;;;;;4.37;3.47;;;;;;;16.55;72.48;97831.47;5075490;28;40196;-79
2023/03/24 08:29:19;;;;;;;3.47;2.80;;;;;;;16.79;71.19;97828.97;5074257;28;40608;-79
2023/03/24 08:31:47;;;;;;;3.30;3.00;;;;;;;17.01;70.55;97824.03;5092098;28;43232;-85
2023/03/24 08:34:15;;;;;;;4.73;3.03;;;;;;;17.49;69.88;97831.38;5091330;28;42609;-84
2023/03/24 08:36:44;;;;;;;3.47;3.17;;;;;;;17.93;67.61;97840.81;5092286;28;40216;-85
2023/03/24 08:39:12;;;;;;;3.90;3.40;;;;;;;18.31;65.14;97847.34;5092364;28;42416;-85
2023/03/24 08:41:40;;;;;;;2.70;2.50;;;;;;;18.64;64.84;97841.97;5075022;28;41746;-83
2023/03/24 08:44:10;;;;;;;5.33;3.00;;;;;;;18.53;63.15;97807.44;5091464;28;41259;-86
2023/03/24 08:46:40;;;;;;;3.03;2.83;;;;;;;18.86;62.83;97854.66;5075651;28;38812;-83
2023/03/24 08:49:09;;;;;;;2.67;2.47;;;;;;;18.79;62.66;97850.97;5074249;28;40739;-84
2023/03/24 08:51:38;;;;;;;3.00;2.70;;;;;;;18.49;63.48;97828.38;5074752;28;41896;-85
2023/03/24 08:54:06;;;;;;;3.00;2.70;;;;;;;18.33;63.14;97832.94;5074185;28;42433;-84
2023/03/24 08:56:34;;;;;;;2.63;2.43;;;;;;;18.15;63.34;97858.09;5091702;28;41941;-86
2023/03/24 08:59:03;;;;;;;2.50;2.30;;;;;;;17.92;64.33;97849.88;5074511;28;41594;-82
2023/03/24 09:01:32;;;;;;;3.37;3.07;;;;;;;17.72;64.99;97836.94;5091957;28;42897;-82
2023/03/24 09:04:02;;;;;;;3.23;3.03;;;;;;;17.51;65.89;97837.41;5074108;28;42171;-82
2023/03/24 09:06:31;;;;;;;2.80;2.60;;;;;;;17.45;66.80;97830.84;5091627;28;42438;-82
2023/03/24 09:08:59;;;;;;;2.53;2.33;;;;;;;17.41;66.89;97848.25;5091466;28;41902;-81
2023/03/24 09:11:26;;;;;;;3.33;2.43;;;;;;;17.33;67.30;97837.50;5090655;28;42871;-78
2023/03/24 09:13:54;;;;;;;2.70;2.50;;;;;;;17.48;67.16;97833.19;5125359;27;43202;-86
2023/03/24 09:16:23;;;;;;;3.90;2.70;;;;;;;17.52;67.04;97847.94;5074229;28;39539;-82
2023/03/24 09:18:50;;;;;;;2.87;2.30;;;;;;;17.46;66.91;97835.19;5091427;28;40804;-87
2023/03/24 09:21:20;;;;;;;2.73;2.30;;;;;;;17.33;66.30;97783.97;5073436;28;42295;-83
2023/03/24 09:23:48;;;;;;;2.33;2.13;;;;;;;17.74;66.48;97845.66;5088645;28;42311;-77
2023/03/24 09:26:16;;;;;;;2.90;2.30;;;;;;;17.48;66.80;97829.69;5089871;28;39364;-81
2023/03/24 09:28:44;;;;;;;4.20;2.60;;;;;;;17.29;67.44;97820.13;5092170;28;41763;-83
2023/03/24 09:31:12;;;;;;;2.53;2.33;;;;;;;17.39;68.41;97828.84;5085725;28;42637;-78
2023/03/24 09:33:40;;;;;;;3.47;2.67;;;;;;;17.52;68.42;97831.88;5089097;28;43520;-78
2023/03/24 09:36:08;;;;;;;2.77;2.20;;;;;;;17.66;67.42;97826.91;5125735;27;40148;-81
2023/03/24 09:38:38;;;;;;;2.47;2.20;;;;;;;18.03;66.72;97829.94;5090405;28;42311;-81
2023/03/24 09:41:17;;;;;;;2.07;1.80;;;;;;;18.21;65.57;97827.09;5090729;28;44222;-80
2023/03/24 09:43:50;;;;;;;3.20;2.20;;;;;;;18.07;65.68;97809.84;5090220;28;41544;-81
2023/03/24 09:46:26;;;;;;;2.43;2.23;;;;;;;18.31;64.97;97828.56;5074005;28;39870;-80
2023/03/24 09:48:56;;;;;;;2.30;2.10;;;;;;;18.30;64.50;97831.41;5089887;28;41142;-81
2023/03/24 09:51:26;;;;;;;3.30;2.00;;;;;;;18.29;64.23;97838.66;5091648;28;42932;-83
2023/03/24 09:54:03;;;;;;;2.30;2.10;;;;;;;18.40;64.05;97836.63;5088720;28;41426;-76
2023/03/24 09:56:33;;;;;;;2.00;1.90;;;;;;;18.35;63.45;97842.47;5107792;28;38902;-78
2023/03/24 09:59:05;;;;;;;2.07;1.97;;;;;;;18.31;64.00;97830.41;5068632;28;41821;-77
2023/03/24 10:01:34;;;;;;;1.67;1.57;;;;;;;18.52;63.60;97833.41;5053191;28;42313;-76
2023/03/24 10:04:02;;;;;;;1.60;1.50;;;;;;;18.73;62.53;97838.25;5072038;28;42253;-76
2023/03/24 10:06:37;;;;;;;1.70;1.60;;;;;;;19.15;62.09;97831.75;5073178;28;38566;-78
2023/03/24 10:09:17;;;;;;;1.60;1.50;;;;;;;19.63;60.52;97844.94;5088908;28;41948;-77
2023/03/24 10:11:53;;;;;;;1.70;1.50;;;;;;;19.32;60.71;97801.09;5073061;28;42692;-78
2023/03/24 10:14:38;;;;;;;2.10;1.57;;;;;;;19.51;60.37;97838.28;5089404;28;41241;-79
2023/03/24 10:17:17;;;;;;;1.90;1.70;;;;;;;19.44;60.90;97836.44;5086695;28;40132;-79
2023/03/24 10:19:53;;;;;;;1.87;1.77;;;;;;;19.45;60.70;97838.94;5086391;28;42667;-78
2023/03/24 10:22:26;;;;;;;1.73;1.63;;;;;;;19.40;61.41;97841.34;5073233;28;41653;-80
2023/03/24 10:25:04;;;;;;;3.37;1.70;;;;;;;19.32;61.32;97828.78;5088487;28;41263;-78
2023/03/24 10:27:36;;;;;;;2.23;1.70;;;;;;;19.31;60.89;97831.63;5106141;28;38426;-77
2023/03/24 10:30:13;;;;;;;2.47;2.27;;;;;;;19.23;61.16;97835.22;5089706;28;40913;-79
2023/03/24 10:32:42;;;;;;;1.93;1.73;;;;;;;19.04;61.33;97810.66;5086863;28;44197;-77
2023/03/24 10:35:18;;;;;;;1.50;1.40;;;;;;;19.11;61.02;97825.03;5071697;28;41179;-77
2023/03/24 10:37:46;;;;;;;1.93;1.60;;;;;;;19.13;60.43;97834.59;5087115;28;40861;-79
2023/03/24 10:40:19;;;;;;;1.80;1.63;;;;;;;18.95;60.96;97837.50;5072652;28;41711;-76
2023/03/24 10:42:49;;;;;;;2.00;1.80;;;;;;;18.74;61.65;97845.28;5091640;28;43727;-80
2023/03/24 10:45:26;;;;;;;1.70;1.60;;;;;;;18.58;62.00;97834.59;5075434;28;41472;-79
2023/03/24 10:47:57;;;;;;;2.43;1.73;;;;;;;18.61;62.07;97829.75;5076185;28;39547;-78
2023/03/24 10:50:27;;;;;;;1.60;1.50;;;;;;;18.77;61.85;97839.59;5094116;28;40920;-78
2023/03/24 10:52:56;;;;;;;1.43;1.20;;;;;;;18.86;61.74;97843.06;5094826;28;42643;-85
2023/03/24 10:55:31;;;;;;;4.77;1.90;;;;;;;18.92;61.35;97853.09;5076722;28;41060;-81
2023/03/24 10:58:00;;;;;;;1.67;1.43;;;;;;;18.81;61.18;97835.53;5076651;28;39607;-80
2023/03/24 11:00:30;;;;;;;1.37;1.27;;;;;;;18.66;60.95;97834.59;5093903;28;41745;-81
2023/03/24 11:03:01;;;;;;;1.70;1.60;;;;;;;18.40;62.35;97834.78;5076559;28;41746;-81
2023/03/24 11:05:32;;;;;;;1.83;1.23;;;;;;;18.18;64.92;97838.13;5077103;28;42727;-82
2023/03/24 11:08:25;;;;;;;1.53;1.43;;;;;;;17.88;66.99;97834.28;5078552;28;39185;-81
2023/03/24 11:10:55;;;;;;;1.37;1.27;;;;;;;17.71;68.14;97829.91;5077180;28;40758;-79
2023/03/24 11:13:32;;;;;;;1.63;1.53;;;;;;;17.53;69.32;97822.00;5092888;28;44228;-78
2023/03/24 11:16:12;;;;;;;1.90;1.57;;;;;;;17.36;70.58;97831.00;5076064;28;42191;-78
2023/03/24 11:18:55;;;;;;;1.73;1.60;;;;;;;17.36;72.19;97831.00;5092844;28;40293;-78
2023/03/24 11:21:24;;;;;;;1.63;1.53;;;;;;;17.15;72.97;97815.38;5092778;28;40742;-79
2023/03/24 11:23:52;;;;;;;1.50;1.40;;;;;;;17.03;74.22;97824.72;5075945;28;41767;-79
2023/03/24 11:26:28;;;;;;;3.40;1.60;;;;;;;16.94;75.01;97820.34;5076544;28;42500;-79
2023/03/24 11:28:58;;;;;;;1.83;1.60;;;;;;;16.87;75.40;97830.81;5094424;28;39894;-80
2023/03/24 11:31:29;;;;;;;1.60;1.40;;;;;;;16.78;75.73;97837.13;5076169;28;40823;-78
2023/03/24 11:34:00;;;;;;;1.73;1.50;;;;;;;16.49;76.18;97810.72;5092190;28;43833;-81
2023/03/24 11:36:41;;;;;;;1.40;1.30;;;;;;;16.59;77.24;97830.13;5076853;28;41026;-79
2023/03/24 11:39:17;;;;;;;1.63;1.40;;;;;;;16.71;77.10;97833.41;5093483;28;38820;-84
2023/03/24 11:42:07;;;;;;;1.70;1.60;;;;;;;16.94;77.08;97852.44;5076925;28;40720;-81
2023/03/24 11:44:50;;;;;;;1.93;1.50;;;;;;;16.82;77.10;97850.00;5073813;28;41542;-85
2023/03/24 11:47:24;;;;;;;1.50;1.40;;;;;;;16.81;77.20;97859.03;5076241;28;41258;-80
2023/03/24 11:49:58;;;;;;;2.07;1.87;;;;;;;16.73;78.21;97848.31;5093294;28;40371;-82
2023/03/24 11:52:31;;;;;;;1.70;1.40;;;;;;;16.87;78.28;97839.69;5090724;28;41622;-80
2023/03/24 11:54:59;;;;;;;1.57;1.30;;;;;;;16.86;77.79;97840.69;5091042;28;42531;-81
2023/03/24 11:57:45;;;;;;;1.80;1.40;;;;;;;16.86;77.93;97813.94;5075897;28;41663;-84
2023/03/24 12:00:20;;;;;;;1.37;1.27;;;;;;;17.10;77.18;97825.72;5092651;28;40452;-81
2023/03/24 12:03:02;;;;;;;1.40;1.30;;;;;;;17.27;76.00;97850.72;5090559;28;42870;-81
2023/03/24 12:05:37;;;;;;;1.30;1.20;;;;;;;17.31;75.33;97855.56;5076011;28;42917;-82
2023/03/24 12:08:27;;;;;;;1.00;1.00;;;;;;;17.53;74.46;97868.38;5091950;28;42347;-84